sensor_id;sensor_type;location;lat;lon;timestamp;P1;durP1;ratioP1;P2;durP2;ratioP2
35636;SDS011;21758;43.542;1.462;2022-08-01T00:02:10;5.93;;;2.05;;
35636;SDS011;21758;43.542;1.462;2022-08-01T00:04:36;3.45;;;1.67;;
35636;SDS011;21758;43.542;1.462;2022-08-01T00:07:01;3.20;;;1.80;;
35636;SDS011;21758;43.542;1.462;2022-08-01T00:09:27;9.07;;;2.10;;
35636;SDS011;21758;43.542;1.462;2022-08-01T00:11:53;3.92;;;2.05;;
35636;SDS011;21758;43.542;1.462;2022-08-01T00:14:18;4.30;;;1.88;;
35636;SDS011;21758;43.542;1.462;2022-08-01T00:16:44;6.20;;;2.35;;
35636;SDS011;21758;43.542;1.462;2022-08-01T00:19:10;3.58;;;2.00;;
35636;SDS011;21758;43.542;1.462;2022-08-01T00:21:35;3.13;;;2.05;;
35636;SDS011;21758;43.542;1.462;2022-08-01T00:24:01;9.88;;;2.42;;
35636;SDS011;21758;43.542;1.462;2022-08-01T00:26:27;3.05;;;1.80;;
35636;SDS011;21758;43.542;1.462;2022-08-01T00:28:52;4.15;;;2.20;;
35636;SDS011;21758;43.542;1.462;2022-08-01T00:31:18;5.72;;;2.20;;
35636;SDS011;21758;43.542;1.462;2022-08-01T00:33:44;3.58;;;2.10;;
35636;SDS011;21758;43.542;1.462;2022-08-01T00:36:09;4.55;;;2.33;;
35636;SDS011;21758;43.542;1.462;2022-08-01T00:38:35;4.07;;;2.47;;
35636;SDS011;21758;43.542;1.462;2022-08-01T00:41:01;7.40;;;2.15;;
35636;SDS011;21758;43.542;1.462;2022-08-01T00:43:26;6.32;;;2.78;;
35636;SDS011;21758;43.542;1.462;2022-08-01T00:45:52;5.65;;;2.55;;
35636;SDS011;21758;43.542;1.462;2022-08-01T00:48:18;5.55;;;2.47;;
35636;SDS011;21758;43.542;1.462;2022-08-01T00:50:43;5.75;;;2.33;;
35636;SDS011;21758;43.542;1.462;2022-08-01T00:53:10;4.30;;;2.42;;
35636;SDS011;21758;43.542;1.462;2022-08-01T00:55:36;6.57;;;2.53;;
35636;SDS011;21758;43.542;1.462;2022-08-01T00:58:02;11.15;;;2.30;;
35636;SDS011;21758;43.542;1.462;2022-08-01T01:00:27;4.10;;;2.40;;
35636;SDS011;21758;43.542;1.462;2022-08-01T01:02:53;7.45;;;2.35;;
35636;SDS011;21758;43.542;1.462;2022-08-01T01:05:19;5.32;;;2.50;;
35636;SDS011;21758;43.542;1.462;2022-08-01T01:10:57;4.10;;;2.50;;
35636;SDS011;21758;43.542;1.462;2022-08-01T01:13:37;3.83;;;2.42;;
35636;SDS011;21758;43.542;1.462;2022-08-01T01:16:08;5.47;;;2.83;;
35636;SDS011;21758;43.542;1.462;2022-08-01T01:23:50;4.97;;;2.60;;
35636;SDS011;21758;43.542;1.462;2022-08-01T01:26:36;5.30;;;2.50;;
35636;SDS011;21758;43.542;1.462;2022-08-01T01:29:04;4.25;;;2.63;;
35636;SDS011;21758;43.542;1.462;2022-08-01T01:31:32;4.55;;;3.00;;
35636;SDS011;21758;43.542;1.462;2022-08-01T01:34:05;4.40;;;2.55;;
35636;SDS011;21758;43.542;1.462;2022-08-01T01:36:32;3.00;;;2.10;;
35636;SDS011;21758;43.542;1.462;2022-08-01T01:38:59;7.13;;;2.53;;
35636;SDS011;21758;43.542;1.462;2022-08-01T01:41:26;5.30;;;2.65;;
35636;SDS011;21758;43.542;1.462;2022-08-01T01:43:53;5.07;;;2.53;;
35636;SDS011;21758;43.542;1.462;2022-08-01T01:46:21;5.93;;;2.47;;
35636;SDS011;21758;43.542;1.462;2022-08-01T01:48:49;6.28;;;2.45;;
35636;SDS011;21758;43.542;1.462;2022-08-01T01:51:16;6.28;;;2.25;;
35636;SDS011;21758;43.542;1.462;2022-08-01T01:53:45;5.53;;;2.25;;
35636;SDS011;21758;43.542;1.462;2022-08-01T01:56:14;5.45;;;2.67;;
35636;SDS011;21758;43.542;1.462;2022-08-01T01:58:43;8.13;;;2.40;;
35636;SDS011;21758;43.542;1.462;2022-08-01T02:01:10;6.25;;;2.40;;
35636;SDS011;21758;43.542;1.462;2022-08-01T02:03:37;6.53;;;2.30;;
35636;SDS011;21758;43.542;1.462;2022-08-01T02:06:05;11.52;;;2.40;;
35636;SDS011;21758;43.542;1.462;2022-08-01T02:08:31;9.30;;;2.83;;
35636;SDS011;21758;43.542;1.462;2022-08-01T02:10:58;5.63;;;2.70;;
35636;SDS011;21758;43.542;1.462;2022-08-01T02:13:44;6.88;;;2.90;;
35636;SDS011;21758;43.542;1.462;2022-08-01T02:16:15;3.30;;;2.15;;
35636;SDS011;21758;43.542;1.462;2022-08-01T02:18:42;3.63;;;2.25;;
35636;SDS011;21758;43.542;1.462;2022-08-01T02:21:08;5.40;;;2.75;;
35636;SDS011;21758;43.542;1.462;2022-08-01T02:23:37;6.68;;;2.50;;
35636;SDS011;21758;43.542;1.462;2022-08-01T02:26:07;5.82;;;2.85;;
35636;SDS011;21758;43.542;1.462;2022-08-01T02:28:42;3.85;;;2.08;;
35636;SDS011;21758;43.542;1.462;2022-08-01T02:31:13;8.38;;;3.00;;
35636;SDS011;21758;43.542;1.462;2022-08-01T02:33:43;4.32;;;2.30;;
35636;SDS011;21758;43.542;1.462;2022-08-01T02:36:11;7.55;;;2.92;;
35636;SDS011;21758;43.542;1.462;2022-08-01T02:38:40;5.10;;;2.30;;
35636;SDS011;21758;43.542;1.462;2022-08-01T02:41:10;8.32;;;3.00;;
35636;SDS011;21758;43.542;1.462;2022-08-01T02:43:40;5.57;;;2.83;;
35636;SDS011;21758;43.542;1.462;2022-08-01T02:46:11;8.60;;;2.90;;
35636;SDS011;21758;43.542;1.462;2022-08-01T02:48:46;6.20;;;2.40;;
35636;SDS011;21758;43.542;1.462;2022-08-01T02:51:14;4.07;;;2.28;;
35636;SDS011;21758;43.542;1.462;2022-08-01T02:53:41;4.55;;;2.10;;
35636;SDS011;21758;43.542;1.462;2022-08-01T02:56:09;7.65;;;2.20;;
35636;SDS011;21758;43.542;1.462;2022-08-01T02:58:36;5.18;;;2.85;;
35636;SDS011;21758;43.542;1.462;2022-08-01T03:01:04;6.97;;;2.40;;
35636;SDS011;21758;43.542;1.462;2022-08-01T03:03:31;7.30;;;2.05;;
35636;SDS011;21758;43.542;1.462;2022-08-01T03:05:58;4.35;;;2.05;;
35636;SDS011;21758;43.542;1.462;2022-08-01T03:08:25;5.30;;;2.90;;
35636;SDS011;21758;43.542;1.462;2022-08-01T03:10:53;7.95;;;2.75;;
35636;SDS011;21758;43.542;1.462;2022-08-01T03:13:21;6.35;;;2.70;;
35636;SDS011;21758;43.542;1.462;2022-08-01T03:15:49;4.30;;;1.98;;
35636;SDS011;21758;43.542;1.462;2022-08-01T03:18:16;4.70;;;2.50;;
35636;SDS011;21758;43.542;1.462;2022-08-01T03:20:43;5.38;;;2.40;;
35636;SDS011;21758;43.542;1.462;2022-08-01T03:23:11;5.35;;;2.58;;
35636;SDS011;21758;43.542;1.462;2022-08-01T03:25:38;9.18;;;2.30;;
35636;SDS011;21758;43.542;1.462;2022-08-01T03:28:06;4.10;;;2.15;;
35636;SDS011;21758;43.542;1.462;2022-08-01T03:30:33;3.70;;;2.17;;
35636;SDS011;21758;43.542;1.462;2022-08-01T03:33:02;4.90;;;2.22;;
35636;SDS011;21758;43.542;1.462;2022-08-01T03:35:38;4.00;;;2.45;;
35636;SDS011;21758;43.542;1.462;2022-08-01T03:38:08;7.97;;;2.65;;
35636;SDS011;21758;43.542;1.462;2022-08-01T03:40:37;6.18;;;2.40;;
35636;SDS011;21758;43.542;1.462;2022-08-01T03:43:07;5.05;;;2.55;;
35636;SDS011;21758;43.542;1.462;2022-08-01T03:48:06;6.00;;;1.92;;
35636;SDS011;21758;43.542;1.462;2022-08-01T03:50:35;7.30;;;2.30;;
35636;SDS011;21758;43.542;1.462;2022-08-01T03:53:04;4.78;;;2.25;;
35636;SDS011;21758;43.542;1.462;2022-08-01T03:55:34;4.15;;;1.90;;
35636;SDS011;21758;43.542;1.462;2022-08-01T03:58:02;5.32;;;1.85;;
35636;SDS011;21758;43.542;1.462;2022-08-01T04:00:29;6.80;;;2.28;;
35636;SDS011;21758;43.542;1.462;2022-08-01T04:02:55;4.60;;;2.05;;
35636;SDS011;21758;43.542;1.462;2022-08-01T04:05:21;6.97;;;2.83;;
35636;SDS011;21758;43.542;1.462;2022-08-01T04:07:48;7.32;;;2.60;;
35636;SDS011;21758;43.542;1.462;2022-08-01T04:10:23;5.20;;;2.67;;
35636;SDS011;21758;43.542;1.462;2022-08-01T04:12:49;4.72;;;2.33;;
35636;SDS011;21758;43.542;1.462;2022-08-01T04:15:15;8.85;;;2.47;;
35636;SDS011;21758;43.542;1.462;2022-08-01T04:17:41;5.80;;;2.88;;
35636;SDS011;21758;43.542;1.462;2022-08-01T04:20:07;4.00;;;2.22;;
35636;SDS011;21758;43.542;1.462;2022-08-01T04:22:33;6.28;;;2.60;;
35636;SDS011;21758;43.542;1.462;2022-08-01T04:25:00;7.60;;;2.60;;
35636;SDS011;21758;43.542;1.462;2022-08-01T04:27:29;6.15;;;2.72;;
35636;SDS011;21758;43.542;1.462;2022-08-01T04:30:00;4.95;;;2.30;;
35636;SDS011;21758;43.542;1.462;2022-08-01T04:32:27;5.05;;;2.17;;
35636;SDS011;21758;43.542;1.462;2022-08-01T04:34:56;7.63;;;3.30;;
35636;SDS011;21758;43.542;1.462;2022-08-01T04:37:25;5.88;;;2.55;;
35636;SDS011;21758;43.542;1.462;2022-08-01T04:39:52;14.52;;;2.97;;
35636;SDS011;21758;43.542;1.462;2022-08-01T04:42:21;4.93;;;2.50;;
35636;SDS011;21758;43.542;1.462;2022-08-01T04:44:47;9.98;;;2.67;;
35636;SDS011;21758;43.542;1.462;2022-08-01T04:47:13;6.97;;;2.58;;
35636;SDS011;21758;43.542;1.462;2022-08-01T04:49:39;5.72;;;2.38;;
35636;SDS011;21758;43.542;1.462;2022-08-01T04:52:05;5.18;;;2.63;;
35636;SDS011;21758;43.542;1.462;2022-08-01T04:54:32;6.68;;;2.67;;
35636;SDS011;21758;43.542;1.462;2022-08-01T04:57:01;8.00;;;2.88;;
35636;SDS011;21758;43.542;1.462;2022-08-01T04:59:29;6.75;;;2.47;;
35636;SDS011;21758;43.542;1.462;2022-08-01T05:02:05;4.35;;;2.55;;
35636;SDS011;21758;43.542;1.462;2022-08-01T05:04:32;6.30;;;2.72;;
35636;SDS011;21758;43.542;1.462;2022-08-01T05:06:58;6.75;;;2.28;;
35636;SDS011;21758;43.542;1.462;2022-08-01T05:09:24;5.50;;;2.83;;
35636;SDS011;21758;43.542;1.462;2022-08-01T05:11:50;7.22;;;2.60;;
35636;SDS011;21758;43.542;1.462;2022-08-01T05:14:16;6.78;;;2.85;;
35636;SDS011;21758;43.542;1.462;2022-08-01T05:16:42;5.85;;;2.78;;
35636;SDS011;21758;43.542;1.462;2022-08-01T05:19:08;6.55;;;2.70;;
35636;SDS011;21758;43.542;1.462;2022-08-01T05:21:34;9.57;;;2.95;;
35636;SDS011;21758;43.542;1.462;2022-08-01T05:24:00;7.53;;;3.22;;
35636;SDS011;21758;43.542;1.462;2022-08-01T05:26:26;5.13;;;2.95;;
35636;SDS011;21758;43.542;1.462;2022-08-01T05:28:51;9.70;;;3.08;;
35636;SDS011;21758;43.542;1.462;2022-08-01T05:31:17;7.13;;;3.58;;
35636;SDS011;21758;43.542;1.462;2022-08-01T05:33:43;8.68;;;3.30;;
35636;SDS011;21758;43.542;1.462;2022-08-01T05:36:09;10.23;;;3.58;;
35636;SDS011;21758;43.542;1.462;2022-08-01T05:38:34;10.45;;;3.40;;
35636;SDS011;21758;43.542;1.462;2022-08-01T05:41:00;7.47;;;3.83;;
35636;SDS011;21758;43.542;1.462;2022-08-01T05:43:26;4.88;;;3.35;;
35636;SDS011;21758;43.542;1.462;2022-08-01T05:45:51;6.15;;;3.08;;
35636;SDS011;21758;43.542;1.462;2022-08-01T05:48:17;11.23;;;4.30;;
35636;SDS011;21758;43.542;1.462;2022-08-01T05:50:42;9.05;;;3.90;;
35636;SDS011;21758;43.542;1.462;2022-08-01T05:53:08;11.88;;;3.80;;
35636;SDS011;21758;43.542;1.462;2022-08-01T05:55:34;9.00;;;4.25;;
35636;SDS011;21758;43.542;1.462;2022-08-01T05:58:00;9.57;;;4.13;;
35636;SDS011;21758;43.542;1.462;2022-08-01T06:00:26;8.38;;;4.30;;
35636;SDS011;21758;43.542;1.462;2022-08-01T06:02:52;16.73;;;5.10;;
35636;SDS011;21758;43.542;1.462;2022-08-01T06:05:17;15.63;;;5.03;;
35636;SDS011;21758;43.542;1.462;2022-08-01T06:07:43;14.52;;;4.40;;
35636;SDS011;21758;43.542;1.462;2022-08-01T06:10:09;10.75;;;4.70;;
35636;SDS011;21758;43.542;1.462;2022-08-01T06:12:35;11.13;;;5.30;;
35636;SDS011;21758;43.542;1.462;2022-08-01T06:15:02;10.23;;;5.28;;
35636;SDS011;21758;43.542;1.462;2022-08-01T06:17:28;7.13;;;4.93;;
35636;SDS011;21758;43.542;1.462;2022-08-01T06:19:54;10.45;;;5.75;;
35636;SDS011;21758;43.542;1.462;2022-08-01T06:22:20;10.98;;;5.30;;
35636;SDS011;21758;43.542;1.462;2022-08-01T06:24:46;10.93;;;5.47;;
35636;SDS011;21758;43.542;1.462;2022-08-01T06:27:12;13.13;;;5.72;;
35636;SDS011;21758;43.542;1.462;2022-08-01T06:29:38;9.95;;;5.45;;
35636;SDS011;21758;43.542;1.462;2022-08-01T06:32:03;10.35;;;5.35;;
35636;SDS011;21758;43.542;1.462;2022-08-01T06:34:30;14.65;;;5.65;;
35636;SDS011;21758;43.542;1.462;2022-08-01T06:36:55;11.40;;;5.65;;
35636;SDS011;21758;43.542;1.462;2022-08-01T06:39:21;14.00;;;5.38;;
35636;SDS011;21758;43.542;1.462;2022-08-01T06:41:46;12.60;;;5.93;;
35636;SDS011;21758;43.542;1.462;2022-08-01T06:44:12;11.80;;;5.13;;
35636;SDS011;21758;43.542;1.462;2022-08-01T06:46:38;14.40;;;5.88;;
35636;SDS011;21758;43.542;1.462;2022-08-01T06:49:04;10.02;;;5.60;;
35636;SDS011;21758;43.542;1.462;2022-08-01T06:51:30;9.05;;;5.63;;
35636;SDS011;21758;43.542;1.462;2022-08-01T06:53:56;9.73;;;5.95;;
35636;SDS011;21758;43.542;1.462;2022-08-01T06:56:21;12.93;;;5.53;;
35636;SDS011;21758;43.542;1.462;2022-08-01T06:58:48;9.75;;;5.72;;
35636;SDS011;21758;43.542;1.462;2022-08-01T07:01:14;15.20;;;5.68;;
35636;SDS011;21758;43.542;1.462;2022-08-01T07:03:40;10.75;;;5.22;;
35636;SDS011;21758;43.542;1.462;2022-08-01T07:06:06;9.38;;;5.55;;
35636;SDS011;21758;43.542;1.462;2022-08-01T07:08:31;13.65;;;5.32;;
35636;SDS011;21758;43.542;1.462;2022-08-01T07:10:57;13.00;;;5.25;;
35636;SDS011;21758;43.542;1.462;2022-08-01T07:13:27;13.52;;;5.55;;
35636;SDS011;21758;43.542;1.462;2022-08-01T07:15:55;10.60;;;5.90;;
35636;SDS011;21758;43.542;1.462;2022-08-01T07:18:22;11.65;;;5.97;;
35636;SDS011;21758;43.542;1.462;2022-08-01T07:20:48;10.60;;;5.03;;
35636;SDS011;21758;43.542;1.462;2022-08-01T07:23:14;6.22;;;4.82;;
35636;SDS011;21758;43.542;1.462;2022-08-01T07:25:40;12.90;;;5.90;;
35636;SDS011;21758;43.542;1.462;2022-08-01T07:28:06;11.38;;;5.75;;
35636;SDS011;21758;43.542;1.462;2022-08-01T07:30:32;9.15;;;4.90;;
35636;SDS011;21758;43.542;1.462;2022-08-01T07:32:58;9.77;;;5.32;;
35636;SDS011;21758;43.542;1.462;2022-08-01T07:35:24;9.30;;;5.50;;
35636;SDS011;21758;43.542;1.462;2022-08-01T07:37:50;7.32;;;4.70;;
35636;SDS011;21758;43.542;1.462;2022-08-01T07:40:16;12.10;;;5.13;;
35636;SDS011;21758;43.542;1.462;2022-08-01T07:42:43;8.90;;;4.93;;
35636;SDS011;21758;43.542;1.462;2022-08-01T07:45:10;11.50;;;5.57;;
35636;SDS011;21758;43.542;1.462;2022-08-01T07:47:36;10.88;;;4.65;;
35636;SDS011;21758;43.542;1.462;2022-08-01T07:50:03;19.13;;;5.68;;
35636;SDS011;21758;43.542;1.462;2022-08-01T07:52:30;11.25;;;5.13;;
35636;SDS011;21758;43.542;1.462;2022-08-01T07:54:56;10.30;;;4.13;;
35636;SDS011;21758;43.542;1.462;2022-08-01T07:57:24;7.28;;;4.22;;
35636;SDS011;21758;43.542;1.462;2022-08-01T07:59:50;9.27;;;4.20;;
35636;SDS011;21758;43.542;1.462;2022-08-01T08:02:16;20.60;;;5.53;;
35636;SDS011;21758;43.542;1.462;2022-08-01T08:04:42;17.42;;;4.93;;
35636;SDS011;21758;43.542;1.462;2022-08-01T08:07:08;20.80;;;4.65;;
35636;SDS011;21758;43.542;1.462;2022-08-01T08:09:33;17.58;;;4.63;;
35636;SDS011;21758;43.542;1.462;2022-08-01T08:11:59;10.27;;;4.28;;
35636;SDS011;21758;43.542;1.462;2022-08-01T08:14:25;8.77;;;4.22;;
35636;SDS011;21758;43.542;1.462;2022-08-01T08:16:51;11.27;;;4.75;;
35636;SDS011;21758;43.542;1.462;2022-08-01T08:19:17;12.15;;;4.18;;
35636;SDS011;21758;43.542;1.462;2022-08-01T08:21:43;21.00;;;5.28;;
35636;SDS011;21758;43.542;1.462;2022-08-01T08:24:09;9.70;;;4.38;;
35636;SDS011;21758;43.542;1.462;2022-08-01T08:26:44;6.63;;;3.97;;
35636;SDS011;21758;43.542;1.462;2022-08-01T08:29:10;8.63;;;4.20;;
35636;SDS011;21758;43.542;1.462;2022-08-01T08:31:35;14.23;;;4.40;;
35636;SDS011;21758;43.542;1.462;2022-08-01T08:34:01;34.83;;;4.40;;
35636;SDS011;21758;43.542;1.462;2022-08-01T08:36:27;9.60;;;4.28;;
35636;SDS011;21758;43.542;1.462;2022-08-01T08:38:52;12.73;;;4.30;;
35636;SDS011;21758;43.542;1.462;2022-08-01T08:41:18;12.95;;;4.15;;
35636;SDS011;21758;43.542;1.462;2022-08-01T08:43:44;15.13;;;4.35;;
35636;SDS011;21758;43.542;1.462;2022-08-01T08:46:09;12.65;;;4.18;;
35636;SDS011;21758;43.542;1.462;2022-08-01T08:48:37;15.70;;;4.05;;
35636;SDS011;21758;43.542;1.462;2022-08-01T08:51:05;16.80;;;4.72;;
35636;SDS011;21758;43.542;1.462;2022-08-01T08:53:33;84.20;;;9.05;;
35636;SDS011;21758;43.542;1.462;2022-08-01T08:56:00;62.40;;;7.90;;
35636;SDS011;21758;43.542;1.462;2022-08-01T08:58:28;31.67;;;4.93;;
35636;SDS011;21758;43.542;1.462;2022-08-01T09:00:59;98.95;;;8.02;;
35636;SDS011;21758;43.542;1.462;2022-08-01T09:03:25;20.65;;;4.13;;
35636;SDS011;21758;43.542;1.462;2022-08-01T09:05:51;225.65;;;10.18;;
35636;SDS011;21758;43.542;1.462;2022-08-01T09:08:16;17.40;;;4.10;;
35636;SDS011;21758;43.542;1.462;2022-08-01T09:10:42;13.13;;;4.10;;
35636;SDS011;21758;43.542;1.462;2022-08-01T09:13:09;10.75;;;3.85;;
35636;SDS011;21758;43.542;1.462;2022-08-01T09:15:46;11.60;;;4.00;;
35636;SDS011;21758;43.542;1.462;2022-08-01T09:18:25;24.05;;;4.45;;
35636;SDS011;21758;43.542;1.462;2022-08-01T09:21:20;11.40;;;4.15;;
35636;SDS011;21758;43.542;1.462;2022-08-01T09:23:53;7.13;;;3.95;;
35636;SDS011;21758;43.542;1.462;2022-08-01T09:26:32;11.30;;;4.13;;
35636;SDS011;21758;43.542;1.462;2022-08-01T09:29:02;6.80;;;3.90;;
35636;SDS011;21758;43.542;1.462;2022-08-01T09:31:41;7.22;;;3.65;;
35636;SDS011;21758;43.542;1.462;2022-08-01T09:34:08;8.13;;;3.53;;
35636;SDS011;21758;43.542;1.462;2022-08-01T09:39:17;9.82;;;4.03;;
35636;SDS011;21758;43.542;1.462;2022-08-01T09:41:44;16.92;;;3.88;;
35636;SDS011;21758;43.542;1.462;2022-08-01T09:44:11;12.82;;;4.07;;
35636;SDS011;21758;43.542;1.462;2022-08-01T09:46:48;12.70;;;4.00;;
35636;SDS011;21758;43.542;1.462;2022-08-01T09:49:14;15.50;;;4.15;;
35636;SDS011;21758;43.542;1.462;2022-08-01T09:51:53;9.85;;;3.60;;
35636;SDS011;21758;43.542;1.462;2022-08-01T09:54:27;9.20;;;4.07;;
35636;SDS011;21758;43.542;1.462;2022-08-01T09:57:11;9.80;;;3.90;;
35636;SDS011;21758;43.542;1.462;2022-08-01T09:59:42;21.83;;;4.35;;
35636;SDS011;21758;43.542;1.462;2022-08-01T10:02:10;10.50;;;4.07;;
35636;SDS011;21758;43.542;1.462;2022-08-01T10:04:45;9.07;;;3.65;;
35636;SDS011;21758;43.542;1.462;2022-08-01T10:07:12;9.90;;;3.33;;
35636;SDS011;21758;43.542;1.462;2022-08-01T10:09:40;8.85;;;3.58;;
35636;SDS011;21758;43.542;1.462;2022-08-01T10:12:07;10.80;;;3.60;;
35636;SDS011;21758;43.542;1.462;2022-08-01T10:14:34;12.13;;;3.50;;
35636;SDS011;21758;43.542;1.462;2022-08-01T10:17:01;7.53;;;3.67;;
35636;SDS011;21758;43.542;1.462;2022-08-01T10:19:29;6.60;;;3.13;;
35636;SDS011;21758;43.542;1.462;2022-08-01T10:21:55;9.20;;;3.55;;
35636;SDS011;21758;43.542;1.462;2022-08-01T10:24:22;10.25;;;3.55;;
35636;SDS011;21758;43.542;1.462;2022-08-01T10:26:51;8.30;;;3.90;;
35636;SDS011;21758;43.542;1.462;2022-08-01T10:29:20;5.35;;;3.33;;
35636;SDS011;21758;43.542;1.462;2022-08-01T10:31:46;7.75;;;3.85;;
35636;SDS011;21758;43.542;1.462;2022-08-01T10:34:15;11.55;;;3.35;;
35636;SDS011;21758;43.542;1.462;2022-08-01T10:36:46;7.53;;;2.88;;
35636;SDS011;21758;43.542;1.462;2022-08-01T10:39:12;8.32;;;3.78;;
35636;SDS011;21758;43.542;1.462;2022-08-01T10:41:39;3.90;;;2.88;;
35636;SDS011;21758;43.542;1.462;2022-08-01T10:44:06;8.13;;;3.83;;
35636;SDS011;21758;43.542;1.462;2022-08-01T10:46:39;6.78;;;3.40;;
35636;SDS011;21758;43.542;1.462;2022-08-01T10:49:10;11.75;;;3.90;;
35636;SDS011;21758;43.542;1.462;2022-08-01T10:51:39;8.38;;;3.83;;
35636;SDS011;21758;43.542;1.462;2022-08-01T10:54:06;9.27;;;4.20;;
35636;SDS011;21758;43.542;1.462;2022-08-01T10:56:42;7.78;;;3.88;;
35636;SDS011;21758;43.542;1.462;2022-08-01T10:59:23;12.93;;;3.60;;
35636;SDS011;21758;43.542;1.462;2022-08-01T11:01:57;6.60;;;3.83;;
35636;SDS011;21758;43.542;1.462;2022-08-01T11:05:12;5.97;;;3.72;;
35636;SDS011;21758;43.542;1.462;2022-08-01T11:07:15;6.70;;;3.30;;
35636;SDS011;21758;43.542;1.462;2022-08-01T11:09:46;8.32;;;3.47;;
35636;SDS011;21758;43.542;1.462;2022-08-01T11:12:14;5.80;;;3.25;;
35636;SDS011;21758;43.542;1.462;2022-08-01T11:17:39;6.43;;;3.85;;
35636;SDS011;21758;43.542;1.462;2022-08-01T11:20:23;7.20;;;3.30;;
35636;SDS011;21758;43.542;1.462;2022-08-01T11:28:25;6.32;;;3.40;;
35636;SDS011;21758;43.542;1.462;2022-08-01T11:30:54;10.68;;;3.90;;
35636;SDS011;21758;43.542;1.462;2022-08-01T11:38:35;6.78;;;3.70;;
35636;SDS011;21758;43.542;1.462;2022-08-01T11:41:35;7.35;;;3.10;;
35636;SDS011;21758;43.542;1.462;2022-08-01T11:43:59;9.27;;;3.53;;
35636;SDS011;21758;43.542;1.462;2022-08-01T11:54:53;9.38;;;3.00;;
35636;SDS011;21758;43.542;1.462;2022-08-01T11:57:29;4.53;;;3.13;;
35636;SDS011;21758;43.542;1.462;2022-08-01T12:00:00;9.07;;;2.80;;
35636;SDS011;21758;43.542;1.462;2022-08-01T12:02:30;5.68;;;2.90;;
35636;SDS011;21758;43.542;1.462;2022-08-01T12:05:00;7.82;;;3.25;;
35636;SDS011;21758;43.542;1.462;2022-08-01T12:07:34;6.68;;;2.90;;
35636;SDS011;21758;43.542;1.462;2022-08-01T12:10:03;7.50;;;3.45;;
35636;SDS011;21758;43.542;1.462;2022-08-01T12:12:31;5.75;;;3.08;;
35636;SDS011;21758;43.542;1.462;2022-08-01T12:14:59;7.38;;;2.88;;
35636;SDS011;21758;43.542;1.462;2022-08-01T12:17:45;6.60;;;3.05;;
35636;SDS011;21758;43.542;1.462;2022-08-01T12:20:16;5.78;;;3.17;;
35636;SDS011;21758;43.542;1.462;2022-08-01T12:22:45;4.30;;;2.97;;
35636;SDS011;21758;43.542;1.462;2022-08-01T12:25:12;6.28;;;3.28;;
35636;SDS011;21758;43.542;1.462;2022-08-01T12:27:40;8.38;;;3.35;;
35636;SDS011;21758;43.542;1.462;2022-08-01T12:30:10;9.82;;;2.97;;
35636;SDS011;21758;43.542;1.462;2022-08-01T12:32:38;8.55;;;2.90;;
35636;SDS011;21758;43.542;1.462;2022-08-01T12:40:33;9.88;;;3.22;;
35636;SDS011;21758;43.542;1.462;2022-08-01T12:43:02;7.22;;;2.75;;
35636;SDS011;21758;43.542;1.462;2022-08-01T12:45:31;6.93;;;2.30;;
35636;SDS011;21758;43.542;1.462;2022-08-01T12:48:14;6.88;;;2.63;;
35636;SDS011;21758;43.542;1.462;2022-08-01T12:50:42;6.88;;;2.25;;
35636;SDS011;21758;43.542;1.462;2022-08-01T12:53:09;4.55;;;2.00;;
35636;SDS011;21758;43.542;1.462;2022-08-01T12:55:45;5.80;;;2.35;;
35636;SDS011;21758;43.542;1.462;2022-08-01T12:58:13;6.65;;;2.35;;
35636;SDS011;21758;43.542;1.462;2022-08-01T13:00:40;10.73;;;2.78;;
35636;SDS011;21758;43.542;1.462;2022-08-01T13:05:46;4.28;;;1.95;;
35636;SDS011;21758;43.542;1.462;2022-08-01T13:10:41;11.00;;;2.67;;
35636;SDS011;21758;43.542;1.462;2022-08-01T13:13:08;6.60;;;2.38;;
35636;SDS011;21758;43.542;1.462;2022-08-01T13:15:35;6.25;;;2.38;;
35636;SDS011;21758;43.542;1.462;2022-08-01T13:23:41;5.75;;;2.55;;
35636;SDS011;21758;43.542;1.462;2022-08-01T13:26:41;4.82;;;2.08;;
35636;SDS011;21758;43.542;1.462;2022-08-01T13:29:08;7.32;;;2.00;;
35636;SDS011;21758;43.542;1.462;2022-08-01T13:31:35;8.60;;;2.47;;
35636;SDS011;21758;43.542;1.462;2022-08-01T13:34:02;7.22;;;1.83;;
35636;SDS011;21758;43.542;1.462;2022-08-01T13:36:28;4.70;;;2.08;;
35636;SDS011;21758;43.542;1.462;2022-08-01T13:38:56;5.93;;;2.50;;
35636;SDS011;21758;43.542;1.462;2022-08-01T13:41:41;3.85;;;2.13;;
35636;SDS011;21758;43.542;1.462;2022-08-01T13:44:07;7.53;;;1.98;;
35636;SDS011;21758;43.542;1.462;2022-08-01T13:46:34;6.07;;;2.08;;
35636;SDS011;21758;43.542;1.462;2022-08-01T13:49:00;6.88;;;2.08;;
35636;SDS011;21758;43.542;1.462;2022-08-01T13:51:28;7.38;;;1.90;;
35636;SDS011;21758;43.542;1.462;2022-08-01T13:53:54;3.65;;;2.40;;
35636;SDS011;21758;43.542;1.462;2022-08-01T13:56:19;3.25;;;2.00;;
35636;SDS011;21758;43.542;1.462;2022-08-01T13:58:45;4.38;;;2.20;;
35636;SDS011;21758;43.542;1.462;2022-08-01T14:01:11;6.32;;;2.25;;
35636;SDS011;21758;43.542;1.462;2022-08-01T14:03:37;5.95;;;2.33;;
35636;SDS011;21758;43.542;1.462;2022-08-01T14:06:03;6.32;;;2.20;;
35636;SDS011;21758;43.542;1.462;2022-08-01T14:08:29;6.15;;;2.05;;
35636;SDS011;21758;43.542;1.462;2022-08-01T14:10:55;5.03;;;2.30;;
35636;SDS011;21758;43.542;1.462;2022-08-01T14:13:27;5.90;;;2.22;;
35636;SDS011;21758;43.542;1.462;2022-08-01T14:15:53;5.43;;;1.85;;
35636;SDS011;21758;43.542;1.462;2022-08-01T14:18:19;5.65;;;2.20;;
35636;SDS011;21758;43.542;1.462;2022-08-01T14:20:45;6.30;;;2.00;;
35636;SDS011;21758;43.542;1.462;2022-08-01T14:23:11;7.10;;;2.20;;
35636;SDS011;21758;43.542;1.462;2022-08-01T14:25:37;7.25;;;1.63;;
35636;SDS011;21758;43.542;1.462;2022-08-01T14:28:04;5.82;;;2.00;;
35636;SDS011;21758;43.542;1.462;2022-08-01T14:30:31;9.18;;;2.20;;
35636;SDS011;21758;43.542;1.462;2022-08-01T14:32:57;6.57;;;2.17;;
35636;SDS011;21758;43.542;1.462;2022-08-01T14:35:23;4.38;;;2.20;;
35636;SDS011;21758;43.542;1.462;2022-08-01T14:37:49;5.53;;;2.47;;
35636;SDS011;21758;43.542;1.462;2022-08-01T14:40:14;4.18;;;2.33;;
35636;SDS011;21758;43.542;1.462;2022-08-01T14:42:40;3.70;;;1.85;;
35636;SDS011;21758;43.542;1.462;2022-08-01T14:45:06;3.45;;;2.10;;
35636;SDS011;21758;43.542;1.462;2022-08-01T14:47:36;5.15;;;2.08;;
35636;SDS011;21758;43.542;1.462;2022-08-01T14:50:03;4.55;;;2.17;;
35636;SDS011;21758;43.542;1.462;2022-08-01T14:52:31;10.07;;;2.08;;
35636;SDS011;21758;43.542;1.462;2022-08-01T14:54:57;5.72;;;1.92;;
35636;SDS011;21758;43.542;1.462;2022-08-01T14:57:23;4.82;;;2.00;;
35636;SDS011;21758;43.542;1.462;2022-08-01T14:59:49;3.58;;;2.00;;
35636;SDS011;21758;43.542;1.462;2022-08-01T15:04:47;11.63;;;2.35;;
35636;SDS011;21758;43.542;1.462;2022-08-01T15:07:13;8.13;;;2.17;;
35636;SDS011;21758;43.542;1.462;2022-08-01T15:09:39;4.68;;;2.20;;
35636;SDS011;21758;43.542;1.462;2022-08-01T15:12:05;7.75;;;1.92;;
35636;SDS011;21758;43.542;1.462;2022-08-01T15:14:31;9.63;;;2.13;;
35636;SDS011;21758;43.542;1.462;2022-08-01T15:19:48;9.23;;;2.22;;
35636;SDS011;21758;43.542;1.462;2022-08-01T15:22:15;3.58;;;2.25;;
35636;SDS011;21758;43.542;1.462;2022-08-01T15:24:41;7.15;;;1.90;;
35636;SDS011;21758;43.542;1.462;2022-08-01T15:27:08;12.52;;;1.75;;
35636;SDS011;21758;43.542;1.462;2022-08-01T15:29:35;8.25;;;2.28;;
35636;SDS011;21758;43.542;1.462;2022-08-01T15:32:02;7.28;;;1.90;;
35636;SDS011;21758;43.542;1.462;2022-08-01T15:34:29;3.17;;;1.80;;
35636;SDS011;21758;43.542;1.462;2022-08-01T15:36:56;6.20;;;1.98;;
35636;SDS011;21758;43.542;1.462;2022-08-01T15:39:22;4.43;;;2.10;;
35636;SDS011;21758;43.542;1.462;2022-08-01T15:41:48;6.70;;;2.20;;
35636;SDS011;21758;43.542;1.462;2022-08-01T15:44:14;9.50;;;1.80;;
35636;SDS011;21758;43.542;1.462;2022-08-01T15:46:42;9.27;;;1.83;;
35636;SDS011;21758;43.542;1.462;2022-08-01T15:49:08;7.72;;;1.83;;